Time;durP1;ratioP1;P1;durP2;ratioP2;P2;SDS_P1;SDS_P2;PMS_P1;PMS_P2;Temp;Humidity;BMP_temperature;BMP_pressure;BME280_temperature;BME280_humidity;BME280_pressure;Samples;Min_cycle;Max_cycle;Signal;HPM_P1;HPM_P2
2022/10/25 00:00:07;;;;;;;15.50;8.10;;;;;;;-128.00;-1.00;-1.00;103969;1273;1013895;-75
2022/10/25 00:03:17;;;;;;;16.40;7.90;;;;;;;-128.00;-1.00;-1.00;103973;1283;1012572;-73
2022/10/25 00:06:04;;;;;;;18.10;7.90;;;;;;;-128.00;-1.00;-1.00;103949;1275;1012056;-71
2022/10/25 00:08:50;;;;;;;15.60;8.10;;;;;;;-128.00;-1.00;-1.00;103968;1266;1009913;-72
2022/10/25 00:11:36;;;;;;;16.10;8.00;;;;;;;-128.00;-1.00;-1.00;103918;1276;1010801;-71
2022/10/25 00:14:23;;;;;;;16.00;7.60;;;;;;;-128.00;-1.00;-1.00;103991;1266;1012967;-73
2022/10/25 00:17:09;;;;;;;17.50;8.10;;;;;;;-128.00;-1.00;-1.00;103946;1266;1012890;-72
2022/10/25 00:19:56;;;;;;;19.70;8.90;;;;;;;-128.00;-1.00;-1.00;103950;1277;1012676;-71
2022/10/25 00:22:42;;;;;;;16.80;7.70;;;;;;;-128.00;-1.00;-1.00;103996;1267;1010013;-73
2022/10/25 00:25:29;;;;;;;20.30;8.40;;;;;;;-128.00;-1.00;-1.00;103963;1270;1011264;-72
2022/10/25 00:28:15;;;;;;;19.00;7.80;;;;;;;-128.00;-1.00;-1.00;103976;1269;1012183;-72
2022/10/25 00:31:10;;;;;;;15.80;7.80;;;;;;;-128.00;-1.00;-1.00;103961;1268;1012378;-73
2022/10/25 00:33:56;;;;;;;18.60;8.70;;;;;;;-128.00;-1.00;-1.00;103970;1274;1013527;-72
2022/10/25 00:36:45;;;;;;;16.20;7.50;;;;;;;-128.00;-1.00;-1.00;103963;1269;1009210;-73
2022/10/25 00:39:32;;;;;;;17.40;8.00;;;;;;;-128.00;-1.00;-1.00;103947;1267;1010438;-73
2022/10/25 00:42:22;;;;;;;16.00;7.50;;;;;;;-128.00;-1.00;-1.00;103990;1269;1012328;-72
2022/10/25 00:45:25;;;;;;;18.40;8.50;;;;;;;-128.00;-1.00;-1.00;103966;1269;1012625;-72
2022/10/25 00:48:11;;;;;;;15.70;7.60;;;;;;;-128.00;-1.00;-1.00;103797;1269;1012184;-73
2022/10/25 00:50:57;;;;;;;15.30;7.50;;;;;;;-128.00;-1.00;-1.00;103748;1262;1009925;-73
2022/10/25 00:53:44;;;;;;;17.40;8.10;;;;;;;-128.00;-1.00;-1.00;103977;1282;1010516;-72
2022/10/25 00:56:38;;;;;;;16.50;7.10;;;;;;;-128.00;-1.00;-1.00;103816;1262;1013421;-73
2022/10/25 00:59:27;;;;;;;14.90;7.10;;;;;;;-128.00;-1.00;-1.00;103805;1269;1011792;-73
2022/10/25 01:02:15;;;;;;;15.20;8.00;;;;;;;-128.00;-1.00;-1.00;103961;1267;1012848;-73
2022/10/25 01:05:02;;;;;;;15.70;8.20;;;;;;;-128.00;-1.00;-1.00;103964;1277;1010218;-74
2022/10/25 01:07:50;;;;;;;17.10;7.60;;;;;;;-128.00;-1.00;-1.00;103892;1282;1011182;-75
2022/10/25 01:10:37;;;;;;;17.60;6.60;;;;;;;-128.00;-1.00;-1.00;104008;1277;1012973;-75
2022/10/25 01:13:23;;;;;;;14.50;7.50;;;;;;;-128.00;-1.00;-1.00;103944;1265;1012719;-73
2022/10/25 01:16:40;;;;;;;13.70;6.40;;;;;;;-128.00;-1.00;-1.00;103981;1269;1012820;-72
2022/10/25 01:20:15;;;;;;;16.80;6.90;;;;;;;-128.00;-1.00;-1.00;103966;1277;1009480;-72
2022/10/25 01:23:20;;;;;;;14.40;6.60;;;;;;;-128.00;-1.00;-1.00;103339;1278;1011452;-72
2022/10/25 01:26:08;;;;;;;18.10;6.40;;;;;;;-128.00;-1.00;-1.00;103360;1279;1012293;-73
2022/10/25 01:29:28;;;;;;;15.00;6.60;;;;;;;-128.00;-1.00;-1.00;103391;1272;1012352;-74
2022/10/25 01:32:29;;;;;;;14.30;7.40;;;;;;;-128.00;-1.00;-1.00;103369;1275;1012672;-74
2022/10/25 01:35:47;;;;;;;15.10;6.90;;;;;;;-128.00;-1.00;-1.00;103332;1275;1009340;-73
2022/10/25 01:39:07;;;;;;;13.00;6.00;;;;;;;-128.00;-1.00;-1.00;103314;1276;1011376;-74
2022/10/25 01:42:00;;;;;;;13.60;5.80;;;;;;;-128.00;-1.00;-1.00;103341;1276;1013136;-75
2022/10/25 01:44:53;;;;;;;16.90;5.90;;;;;;;-128.00;-1.00;-1.00;103398;1274;1011997;-74
2022/10/25 01:47:52;;;;;;;15.60;5.70;;;;;;;-128.00;-1.00;-1.00;103379;1276;1013405;-73
2022/10/25 01:50:41;;;;;;;16.20;9.30;;;;;;;-128.00;-1.00;-1.00;103388;1274;1009458;-74
2022/10/25 01:53:27;;;;;;;15.20;6.00;;;;;;;-128.00;-1.00;-1.00;103300;1278;1010801;-73
2022/10/25 01:56:29;;;;;;;14.10;5.40;;;;;;;-128.00;-1.00;-1.00;103384;1291;1013128;-72
2022/10/25 01:59:46;;;;;;;11.70;6.20;;;;;;;-128.00;-1.00;-1.00;103547;1274;1012415;-72
2022/10/25 02:03:07;;;;;;;15.40;5.50;;;;;;;-128.00;-1.00;-1.00;103976;1269;1012627;-73
2022/10/25 02:06:14;;;;;;;14.10;5.70;;;;;;;-128.00;-1.00;-1.00;103852;1276;1009861;-72
2022/10/25 02:09:12;;;;;;;13.00;5.80;;;;;;;-128.00;-1.00;-1.00;103858;1270;1011910;-74
2022/10/25 02:12:01;;;;;;;13.40;6.10;;;;;;;-128.00;-1.00;-1.00;103827;1277;1012291;-72
2022/10/25 02:15:04;;;;;;;16.80;5.40;;;;;;;-128.00;-1.00;-1.00;103817;1269;1012954;-73
2022/10/25 02:17:58;;;;;;;14.60;6.00;;;;;;;-128.00;-1.00;-1.00;103986;1277;1013495;-72
2022/10/25 02:20:46;;;;;;;17.50;6.60;;;;;;;-128.00;-1.00;-1.00;103806;1276;1009437;-73
2022/10/25 02:23:35;;;;;;;12.00;5.50;;;;;;;-128.00;-1.00;-1.00;103796;1276;1011708;-72
2022/10/25 02:26:23;;;;;;;12.20;5.60;;;;;;;-128.00;-1.00;-1.00;103809;1269;1012700;-72
2022/10/25 02:29:12;;;;;;;18.80;5.90;;;;;;;-128.00;-1.00;-1.00;103984;1266;1012505;-73
2022/10/25 02:32:00;;;;;;;16.00;5.80;;;;;;;-128.00;-1.00;-1.00;103757;1269;1012769;-72
2022/10/25 02:34:50;;;;;;;14.10;5.50;;;;;;;-128.00;-1.00;-1.00;103773;1279;1009136;-72
2022/10/25 02:37:36;;;;;;;14.20;5.70;;;;;;;-128.00;-1.00;-1.00;103985;1269;1011165;-72
2022/10/25 02:40:23;;;;;;;12.10;5.10;;;;;;;-128.00;-1.00;-1.00;104003;1282;1012477;-72
2022/10/25 02:43:09;;;;;;;12.30;5.40;;;;;;;-128.00;-1.00;-1.00;103981;1266;1012577;-72
2022/10/25 02:45:55;;;;;;;15.60;5.50;;;;;;;-128.00;-1.00;-1.00;103892;1283;1012668;-72
2022/10/25 02:48:42;;;;;;;12.00;5.60;;;;;;;-128.00;-1.00;-1.00;104007;1270;1009967;-73
2022/10/25 02:51:28;;;;;;;16.80;6.60;;;;;;;-128.00;-1.00;-1.00;103993;1266;1010726;-72
2022/10/25 02:54:14;;;;;;;13.70;5.50;;;;;;;-128.00;-1.00;-1.00;103993;1266;1012612;-72
2022/10/25 02:57:00;;;;;;;14.60;6.10;;;;;;;-128.00;-1.00;-1.00;103977;1261;1012133;-72
2022/10/25 02:59:48;;;;;;;11.10;5.10;;;;;;;-128.00;-1.00;-1.00;103968;1279;1012040;-72
2022/10/25 03:02:34;;;;;;;10.70;5.10;;;;;;;-128.00;-1.00;-1.00;103981;1270;1010026;-72
2022/10/25 03:05:20;;;;;;;14.80;5.80;;;;;;;-128.00;-1.00;-1.00;103891;1269;1011323;-72
2022/10/25 03:08:07;;;;;;;12.50;5.70;;;;;;;-128.00;-1.00;-1.00;103976;1270;1012456;-73
2022/10/25 03:10:54;;;;;;;15.70;5.90;;;;;;;-128.00;-1.00;-1.00;103963;1277;1011643;-73
2022/10/25 03:13:41;;;;;;;16.80;5.70;;;;;;;-128.00;-1.00;-1.00;103970;1267;1012143;-73
2022/10/25 03:16:29;;;;;;;12.30;6.00;;;;;;;-128.00;-1.00;-1.00;103965;1282;1010235;-73
2022/10/25 03:19:15;;;;;;;14.30;5.70;;;;;;;-128.00;-1.00;-1.00;103978;1282;1010741;-71
2022/10/25 03:22:02;;;;;;;15.10;6.50;;;;;;;-128.00;-1.00;-1.00;103970;1282;1012717;-73
2022/10/25 03:24:48;;;;;;;13.60;5.90;;;;;;;-128.00;-1.00;-1.00;103953;1266;1013363;-72
2022/10/25 03:27:34;;;;;;;14.90;6.20;;;;;;;-128.00;-1.00;-1.00;103968;1269;1012667;-72
2022/10/25 03:30:20;;;;;;;12.90;5.80;;;;;;;-128.00;-1.00;-1.00;103948;1272;1009601;-73
2022/10/25 03:33:06;;;;;;;12.20;6.10;;;;;;;-128.00;-1.00;-1.00;103986;1259;1011067;-74
2022/10/25 03:35:54;;;;;;;13.30;5.80;;;;;;;-128.00;-1.00;-1.00;103998;1270;1013235;-72
2022/10/25 03:38:41;;;;;;;11.40;5.90;;;;;;;-128.00;-1.00;-1.00;103956;1269;1012627;-72
2022/10/25 03:41:27;;;;;;;15.10;6.10;;;;;;;-128.00;-1.00;-1.00;103925;1273;1013002;-73
2022/10/25 03:44:13;;;;;;;15.50;6.50;;;;;;;-128.00;-1.00;-1.00;103963;1276;1009900;-73
2022/10/25 03:46:59;;;;;;;12.60;6.00;;;;;;;-128.00;-1.00;-1.00;103989;1270;1011106;-72
2022/10/25 03:49:45;;;;;;;14.90;6.30;;;;;;;-128.00;-1.00;-1.00;103915;1269;1012348;-72
2022/10/25 03:52:31;;;;;;;15.80;5.80;;;;;;;-128.00;-1.00;-1.00;103989;1269;1012182;-74
2022/10/25 03:55:18;;;;;;;15.20;6.20;;;;;;;-128.00;-1.00;-1.00;103961;1266;1012734;-73
2022/10/25 03:58:04;;;;;;;16.10;6.10;;;;;;;-128.00;-1.00;-1.00;103961;1262;1009836;-73
2022/10/25 04:00:50;;;;;;;12.20;6.60;;;;;;;-128.00;-1.00;-1.00;103953;1275;1010894;-73
2022/10/25 04:03:37;;;;;;;14.80;6.20;;;;;;;-128.00;-1.00;-1.00;103974;1274;1013460;-74
2022/10/25 04:06:23;;;;;;;15.70;6.50;;;;;;;-128.00;-1.00;-1.00;103814;1276;1012842;-73
2022/10/25 04:09:09;;;;;;;14.50;7.10;;;;;;;-128.00;-1.00;-1.00;103994;1269;1013236;-74
2022/10/25 04:11:56;;;;;;;16.80;6.80;;;;;;;-128.00;-1.00;-1.00;103983;1267;1009555;-72
2022/10/25 04:14:42;;;;;;;15.70;6.60;;;;;;;-128.00;-1.00;-1.00;103767;1283;1011276;-74
2022/10/25 04:17:28;;;;;;;15.60;7.20;;;;;;;-128.00;-1.00;-1.00;103975;1267;1012320;-74
2022/10/25 04:20:15;;;;;;;14.70;7.50;;;;;;;-128.00;-1.00;-1.00;103933;1277;1012213;-72
2022/10/25 04:23:01;;;;;;;14.80;6.60;;;;;;;-128.00;-1.00;-1.00;103952;1275;1012813;-74
2022/10/25 04:25:48;;;;;;;13.00;6.00;;;;;;;-128.00;-1.00;-1.00;103933;1269;1009570;-73
2022/10/25 04:28:34;;;;;;;17.20;7.40;;;;;;;-128.00;-1.00;-1.00;103983;1270;1011247;-73
2022/10/25 04:31:22;;;;;;;15.50;7.10;;;;;;;-128.00;-1.00;-1.00;103969;1262;1014579;-73
2022/10/25 04:34:08;;;;;;;13.00;6.80;;;;;;;-128.00;-1.00;-1.00;103957;1262;1011834;-73
2022/10/25 04:36:54;;;;;;;13.80;6.90;;;;;;;-128.00;-1.00;-1.00;103965;1262;1013241;-76
2022/10/25 04:39:41;;;;;;;15.50;6.90;;;;;;;-128.00;-1.00;-1.00;103978;1265;1009602;-74
2022/10/25 04:42:27;;;;;;;16.20;7.50;;;;;;;-128.00;-1.00;-1.00;103795;1276;1010813;-75
2022/10/25 04:45:14;;;;;;;14.60;7.00;;;;;;;-128.00;-1.00;-1.00;103746;1284;1012867;-77
2022/10/25 04:48:00;;;;;;;17.40;6.70;;;;;;;-128.00;-1.00;-1.00;103693;1273;1012361;-75
2022/10/25 04:50:47;;;;;;;11.80;6.00;;;;;;;-128.00;-1.00;-1.00;103982;1267;1012717;-73
2022/10/25 04:53:33;;;;;;;16.70;7.10;;;;;;;-128.00;-1.00;-1.00;103945;1270;1010236;-74
2022/10/25 04:56:19;;;;;;;18.70;6.40;;;;;;;-128.00;-1.00;-1.00;103938;1262;1011750;-74
2022/10/25 04:59:05;;;;;;;13.60;6.70;;;;;;;-128.00;-1.00;-1.00;103964;1276;1012658;-75
2022/10/25 05:01:51;;;;;;;14.40;6.50;;;;;;;-128.00;-1.00;-1.00;103947;1269;1012011;-74
2022/10/25 05:04:42;;;;;;;13.90;6.10;;;;;;;-128.00;-1.00;-1.00;103934;1269;1012708;-73
2022/10/25 05:07:29;;;;;;;14.50;6.90;;;;;;;-128.00;-1.00;-1.00;103960;1270;1010083;-74
2022/10/25 05:10:16;;;;;;;14.50;7.00;;;;;;;-128.00;-1.00;-1.00;103886;1269;1011167;-72
2022/10/25 05:13:02;;;;;;;14.50;7.10;;;;;;;-128.00;-1.00;-1.00;103743;1268;1012455;-72
2022/10/25 05:15:55;;;;;;;16.70;7.00;;;;;;;-128.00;-1.00;-1.00;103946;1268;1011874;-74
2022/10/25 05:18:44;;;;;;;14.20;7.50;;;;;;;-128.00;-1.00;-1.00;103934;1277;1013941;-72
2022/10/25 05:21:30;;;;;;;14.70;7.80;;;;;;;-128.00;-1.00;-1.00;103931;1269;1009668;-72
2022/10/25 05:24:20;;;;;;;13.90;6.60;;;;;;;-128.00;-1.00;-1.00;103776;1269;1010739;-72
2022/10/25 05:27:06;;;;;;;19.30;8.50;;;;;;;-128.00;-1.00;-1.00;103796;1269;1012277;-73
2022/10/25 05:29:52;;;;;;;14.80;8.20;;;;;;;-128.00;-1.00;-1.00;103784;1269;1012117;-73
2022/10/25 05:32:39;;;;;;;17.40;6.70;;;;;;;-128.00;-1.00;-1.00;103966;1269;1012811;-73
2022/10/25 05:35:25;;;;;;;14.30;7.00;;;;;;;-128.00;-1.00;-1.00;103942;1282;1010964;-74
2022/10/25 05:38:11;;;;;;;17.10;7.30;;;;;;;-128.00;-1.00;-1.00;103953;1282;1010975;-73
2022/10/25 05:40:59;;;;;;;15.40;7.20;;;;;;;-128.00;-1.00;-1.00;103955;1282;1012847;-73
2022/10/25 05:43:50;;;;;;;13.60;6.70;;;;;;;-128.00;-1.00;-1.00;103980;1289;1012824;-72
2022/10/25 05:46:37;;;;;;;15.80;7.40;;;;;;;-128.00;-1.00;-1.00;104002;1272;1013661;-72
2022/10/25 05:49:23;;;;;;;16.70;7.80;;;;;;;-128.00;-1.00;-1.00;104000;1269;1010368;-73
2022/10/25 05:52:11;;;;;;;16.90;6.80;;;;;;;-128.00;-1.00;-1.00;103953;1280;1010896;-74
2022/10/25 05:54:57;;;;;;;14.00;7.10;;;;;;;-128.00;-1.00;-1.00;103985;1270;1012843;-73
2022/10/25 05:57:50;;;;;;;15.40;6.80;;;;;;;-128.00;-1.00;-1.00;103977;1274;1013664;-73
2022/10/25 06:00:36;;;;;;;18.20;7.60;;;;;;;-128.00;-1.00;-1.00;103803;1269;1012907;-74
2022/10/25 06:03:24;;;;;;;13.50;7.20;;;;;;;-128.00;-1.00;-1.00;104043;1282;1009644;-76
2022/10/25 06:06:11;;;;;;;13.30;6.70;;;;;;;-128.00;-1.00;-1.00;103812;1270;1010002;-77
2022/10/25 06:08:59;;;;;;;15.70;7.60;;;;;;;-128.00;-1.00;-1.00;104008;1277;1012814;-78
2022/10/25 06:11:46;;;;;;;14.80;6.70;;;;;;;-128.00;-1.00;-1.00;103999;1270;1011874;-77
2022/10/25 06:14:33;;;;;;;15.80;7.80;;;;;;;-128.00;-1.00;-1.00;104040;1266;1013274;-77
2022/10/25 06:17:19;;;;;;;16.00;6.70;;;;;;;-128.00;-1.00;-1.00;103990;1277;1009667;-77
2022/10/25 06:20:10;;;;;;;14.00;6.90;;;;;;;-128.00;-1.00;-1.00;103987;1282;1011391;-77
2022/10/25 06:22:57;;;;;;;16.60;5.50;;;;;;;-128.00;-1.00;-1.00;103987;1281;1013740;-75
2022/10/25 06:25:43;;;;;;;14.10;6.10;;;;;;;-128.00;-1.00;-1.00;104045;1266;1012382;-77
2022/10/25 06:28:31;;;;;;;12.70;5.90;;;;;;;-128.00;-1.00;-1.00;103989;1275;1013240;-78
2022/10/25 06:31:18;;;;;;;13.80;6.70;;;;;;;-128.00;-1.00;-1.00;104028;1267;1010376;-78
2022/10/25 06:34:05;;;;;;;17.30;6.40;;;;;;;-128.00;-1.00;-1.00;103968;1266;1010518;-77
2022/10/25 06:36:51;;;;;;;14.00;5.80;;;;;;;-128.00;-1.00;-1.00;103991;1269;1012713;-76
2022/10/25 06:39:37;;;;;;;14.50;6.00;;;;;;;-128.00;-1.00;-1.00;103967;1280;1011928;-76
2022/10/25 06:42:24;;;;;;;15.50;6.70;;;;;;;-128.00;-1.00;-1.00;103970;1277;1013412;-77
2022/10/25 06:45:10;;;;;;;14.40;5.90;;;;;;;-128.00;-1.00;-1.00;103867;1276;1009246;-77
2022/10/25 06:47:57;;;;;;;11.70;5.80;;;;;;;-128.00;-1.00;-1.00;103986;1282;1011330;-78
2022/10/25 06:50:43;;;;;;;12.00;5.50;;;;;;;-128.00;-1.00;-1.00;103980;1265;1012815;-77
2022/10/25 06:53:36;;;;;;;13.40;5.80;;;;;;;-128.00;-1.00;-1.00;103970;1282;1012152;-77
2022/10/25 06:56:23;;;;;;;14.30;6.10;;;;;;;-128.00;-1.00;-1.00;103966;1266;1014002;-74
2022/10/25 06:59:10;;;;;;;13.10;5.80;;;;;;;-128.00;-1.00;-1.00;103976;1282;1010013;-73
2022/10/25 07:01:59;;;;;;;11.30;5.50;;;;;;;-128.00;-1.00;-1.00;103961;1277;1011166;-73
2022/10/25 07:04:45;;;;;;;14.20;5.10;;;;;;;-128.00;-1.00;-1.00;103953;1267;1012720;-73
2022/10/25 07:07:31;;;;;;;14.10;5.90;;;;;;;-128.00;-1.00;-1.00;103940;1265;1012574;-72
2022/10/25 07:10:18;;;;;;;11.00;6.00;;;;;;;-128.00;-1.00;-1.00;103929;1274;1012812;-72
2022/10/25 07:13:04;;;;;;;13.60;5.90;;;;;;;-128.00;-1.00;-1.00;103891;1270;1010101;-73
2022/10/25 07:15:50;;;;;;;13.20;5.00;;;;;;;-128.00;-1.00;-1.00;103919;1267;1010756;-73
2022/10/25 07:18:37;;;;;;;11.40;4.30;;;;;;;-128.00;-1.00;-1.00;103979;1270;1012585;-74
2022/10/25 07:21:24;;;;;;;13.00;4.80;;;;;;;-128.00;-1.00;-1.00;103958;1277;1012544;-73
2022/10/25 07:24:12;;;;;;;13.20;4.50;;;;;;;-128.00;-1.00;-1.00;103924;1265;1012191;-74
2022/10/25 07:26:58;;;;;;;11.50;3.90;;;;;;;-128.00;-1.00;-1.00;103945;1268;1009608;-75
2022/10/25 07:29:45;;;;;;;13.90;4.20;;;;;;;-128.00;-1.00;-1.00;103792;1281;1010716;-73
2022/10/25 07:32:31;;;;;;;9.30;3.50;;;;;;;-128.00;-1.00;-1.00;103961;1283;1013213;-74
2022/10/25 07:35:17;;;;;;;11.20;3.70;;;;;;;-128.00;-1.00;-1.00;103945;1265;1012349;-73
2022/10/25 07:38:03;;;;;;;8.60;3.20;;;;;;;-128.00;-1.00;-1.00;103968;1269;1013442;-74
2022/10/25 07:40:57;;;;;;;14.60;3.30;;;;;;;-128.00;-1.00;-1.00;103974;1273;1009948;-74
2022/10/25 07:43:43;;;;;;;11.20;3.40;;;;;;;-128.00;-1.00;-1.00;103889;1281;1010364;-75
2022/10/25 07:46:30;;;;;;;11.60;3.00;;;;;;;-128.00;-1.00;-1.00;103965;1277;1013113;-73
2022/10/25 07:49:16;;;;;;;9.70;3.20;;;;;;;-128.00;-1.00;-1.00;103920;1282;1012370;-73
2022/10/25 07:52:02;;;;;;;10.60;3.50;;;;;;;-128.00;-1.00;-1.00;103948;1270;1012071;-74
2022/10/25 07:54:49;;;;;;;9.50;2.70;;;;;;;-128.00;-1.00;-1.00;103933;1269;1009781;-73
2022/10/25 07:57:35;;;;;;;9.40;2.90;;;;;;;-128.00;-1.00;-1.00;103921;1282;1010652;-73
2022/10/25 08:00:22;;;;;;;9.20;2.90;;;;;;;-128.00;-1.00;-1.00;103946;1280;1012866;-74
2022/10/25 08:03:08;;;;;;;9.20;2.80;;;;;;;-128.00;-1.00;-1.00;103924;1277;1012778;-74
2022/10/25 08:05:55;;;;;;;7.90;2.90;;;;;;;-128.00;-1.00;-1.00;103968;1281;1013174;-74
2022/10/25 08:08:41;;;;;;;9.50;2.60;;;;;;;-128.00;-1.00;-1.00;103935;1269;1009215;-74
2022/10/25 08:11:28;;;;;;;9.40;2.90;;;;;;;-128.00;-1.00;-1.00;103919;1282;1010893;-73
2022/10/25 08:14:14;;;;;;;9.00;2.40;;;;;;;-128.00;-1.00;-1.00;103830;1282;1012606;-73
2022/10/25 08:17:00;;;;;;;11.90;2.80;;;;;;;-128.00;-1.00;-1.00;103911;1265;1012878;-74
2022/10/25 08:19:46;;;;;;;9.00;2.60;;;;;;;-128.00;-1.00;-1.00;103922;1281;1012904;-75
2022/10/25 08:22:37;;;;;;;9.20;2.30;;;;;;;-128.00;-1.00;-1.00;103936;1266;1009568;-73
2022/10/25 08:25:25;;;;;;;10.50;2.70;;;;;;;-128.00;-1.00;-1.00;103944;1270;1010807;-72
2022/10/25 08:28:13;;;;;;;8.60;2.50;;;;;;;-128.00;-1.00;-1.00;103943;1270;1012897;-74
2022/10/25 08:30:59;;;;;;;8.50;2.40;;;;;;;-128.00;-1.00;-1.00;103893;1270;1012584;-75
2022/10/25 08:33:45;;;;;;;8.80;2.90;;;;;;;-128.00;-1.00;-1.00;103934;1270;1013390;-76
2022/10/25 08:36:33;;;;;;;9.70;3.20;;;;;;;-128.00;-1.00;-1.00;103964;1277;1009496;-77
2022/10/25 08:39:19;;;;;;;8.60;2.30;;;;;;;-128.00;-1.00;-1.00;103969;1269;1011735;-74
2022/10/25 08:42:06;;;;;;;9.10;2.10;;;;;;;-128.00;-1.00;-1.00;103977;1275;1012826;-74
2022/10/25 08:45:07;;;;;;;10.90;3.30;;;;;;;-128.00;-1.00;-1.00;103952;1277;1012405;-76
2022/10/25 08:47:55;;;;;;;10.20;4.10;;;;;;;-128.00;-1.00;-1.00;103752;1281;1012939;-77
2022/10/25 08:50:52;;;;;;;9.10;2.50;;;;;;;-128.00;-1.00;-1.00;103781;1283;1009924;-76
2022/10/25 08:53:47;;;;;;;10.20;2.50;;;;;;;-128.00;-1.00;-1.00;103796;1283;1011079;-74
2022/10/25 08:56:34;;;;;;;8.40;1.90;;;;;;;-128.00;-1.00;-1.00;103938;1282;1012644;-76
2022/10/25 08:59:34;;;;;;;8.30;2.00;;;;;;;-128.00;-1.00;-1.00;103941;1270;1012038;-75
2022/10/25 09:02:44;;;;;;;9.00;2.40;;;;;;;-128.00;-1.00;-1.00;103741;1270;1012967;-74
2022/10/25 09:05:39;;;;;;;9.70;2.60;;;;;;;-128.00;-1.00;-1.00;103835;1275;1009721;-74
2022/10/25 09:08:53;;;;;;;9.30;2.00;;;;;;;-128.00;-1.00;-1.00;103735;1278;1011561;-74
2022/10/25 09:11:38;;;;;;;10.50;2.40;;;;;;;-128.00;-1.00;-1.00;103838;1282;1013778;-74
2022/10/25 09:15:11;;;;;;;11.90;3.00;;;;;;;-128.00;-1.00;-1.00;103818;1275;1012568;-74
2022/10/25 09:17:58;;;;;;;21.90;5.00;;;;;;;-128.00;-1.00;-1.00;103967;1269;1012694;-75
2022/10/25 09:20:51;;;;;;;14.10;3.30;;;;;;;-128.00;-1.00;-1.00;103960;1269;1010186;-73
2022/10/25 09:23:42;;;;;;;11.20;2.80;;;;;;;-128.00;-1.00;-1.00;103789;1270;1010430;-75
2022/10/25 09:26:41;;;;;;;12.00;2.40;;;;;;;-128.00;-1.00;-1.00;103792;1269;1012747;-75
2022/10/25 09:29:36;;;;;;;10.20;2.30;;;;;;;-128.00;-1.00;-1.00;103964;1272;1012180;-74
2022/10/25 09:32:38;;;;;;;7.80;2.20;;;;;;;-128.00;-1.00;-1.00;103759;1283;1012025;-74
2022/10/25 09:35:34;;;;;;;7.90;2.20;;;;;;;-128.00;-1.00;-1.00;103967;1265;1009749;-76
2022/10/25 09:38:28;;;;;;;9.00;2.00;;;;;;;-128.00;-1.00;-1.00;103778;1273;1011455;-74
2022/10/25 09:41:41;;;;;;;8.10;2.10;;;;;;;-128.00;-1.00;-1.00;103745;1275;1012120;-74
2022/10/25 09:44:55;;;;;;;8.30;2.00;;;;;;;-128.00;-1.00;-1.00;103976;1265;1012747;-75
2022/10/25 09:47:52;;;;;;;9.50;2.00;;;;;;;-128.00;-1.00;-1.00;103958;1272;1012724;-75
2022/10/25 09:51:26;;;;;;;8.70;2.00;;;;;;;-128.00;-1.00;-1.00;103783;1276;1009487;-75
2022/10/25 09:54:30;;;;;;;11.20;2.20;;;;;;;-128.00;-1.00;-1.00;103818;1284;1010719;-74
2022/10/25 09:57:16;;;;;;;7.60;2.00;;;;;;;-128.00;-1.00;-1.00;103808;1282;1012083;-74
2022/10/25 10:00:03;;;;;;;9.70;2.40;;;;;;;-128.00;-1.00;-1.00;104009;1265;1012827;-75
2022/10/25 10:02:57;;;;;;;8.20;1.90;;;;;;;-128.00;-1.00;-1.00;103929;1265;1014417;-75
2022/10/25 10:05:55;;;;;;;7.50;1.90;;;;;;;-128.00;-1.00;-1.00;103797;1268;1009340;-74
2022/10/25 10:08:49;;;;;;;10.00;1.90;;;;;;;-128.00;-1.00;-1.00;103799;1273;1010877;-75
2022/10/25 10:11:36;;;;;;;7.70;1.90;;;;;;;-128.00;-1.00;-1.00;103831;1275;1013509;-74
2022/10/25 10:14:49;;;;;;;9.80;2.30;;;;;;;-128.00;-1.00;-1.00;103965;1280;1011709;-75
2022/10/25 10:17:36;;;;;;;9.20;2.00;;;;;;;-128.00;-1.00;-1.00;103743;1272;1013264;-76
2022/10/25 10:20:22;;;;;;;8.60;1.80;;;;;;;-128.00;-1.00;-1.00;103935;1265;1010466;-75
2022/10/25 10:23:13;;;;;;;9.60;2.20;;;;;;;-128.00;-1.00;-1.00;103981;1280;1010065;-74
2022/10/25 10:26:09;;;;;;;8.40;2.20;;;;;;;-128.00;-1.00;-1.00;103792;1275;1013162;-75
2022/10/25 10:29:21;;;;;;;7.90;2.00;;;;;;;-128.00;-1.00;-1.00;103693;1285;1012546;-76
2022/10/25 10:32:35;;;;;;;9.80;2.50;;;;;;;-128.00;-1.00;-1.00;103745;1286;1012669;-74
2022/10/25 10:35:34;;;;;;;9.50;2.00;;;;;;;-128.00;-1.00;-1.00;103746;1267;1009791;-77
2022/10/25 10:38:27;;;;;;;9.40;2.20;;;;;;;-128.00;-1.00;-1.00;103749;1281;1012264;-74
2022/10/25 10:41:27;;;;;;;10.30;2.50;;;;;;;-128.00;-1.00;-1.00;103913;1282;1013213;-75
2022/10/25 10:44:14;;;;;;;7.70;2.30;;;;;;;-128.00;-1.00;-1.00;103806;1265;1012488;-74
2022/10/25 10:47:10;;;;;;;7.70;2.10;;;;;;;-128.00;-1.00;-1.00;103944;1265;1012589;-74
2022/10/25 10:49:57;;;;;;;8.80;2.30;;;;;;;-128.00;-1.00;-1.00;103833;1272;1009866;-72
2022/10/25 10:52:44;;;;;;;9.90;2.60;;;;;;;-128.00;-1.00;-1.00;103961;1267;1011532;-74
2022/10/25 10:55:37;;;;;;;7.40;2.70;;;;;;;-128.00;-1.00;-1.00;103787;1283;1012945;-73
2022/10/25 10:58:40;;;;;;;7.50;1.90;;;;;;;-128.00;-1.00;-1.00;103948;1265;1013460;-74
2022/10/25 11:01:32;;;;;;;8.50;2.50;;;;;;;-128.00;-1.00;-1.00;103806;1273;1013654;-74
2022/10/25 11:04:19;;;;;;;9.20;2.40;;;;;;;-128.00;-1.00;-1.00;103822;1273;1010159;-75
2022/10/25 11:07:23;;;;;;;8.90;2.40;;;;;;;-128.00;-1.00;-1.00;103774;1276;1010618;-72
2022/10/25 11:10:15;;;;;;;8.00;1.80;;;;;;;-128.00;-1.00;-1.00;103953;1269;1013317;-72
2022/10/25 11:13:10;;;;;;;6.20;1.70;;;;;;;-128.00;-1.00;-1.00;103746;1275;1012358;-73
2022/10/25 11:16:49;;;;;;;7.70;2.00;;;;;;;-128.00;-1.00;-1.00;103938;1272;1013278;-73
2022/10/25 11:19:46;;;;;;;9.80;2.00;;;;;;;-128.00;-1.00;-1.00;103964;1282;1010207;-72
2022/10/25 11:23:13;;;;;;;7.80;2.10;;;;;;;-128.00;-1.00;-1.00;103961;1273;1010758;-71
2022/10/25 11:26:25;;;;;;;9.10;2.50;;;;;;;-128.00;-1.00;-1.00;103265;1291;1012727;-72
2022/10/25 11:29:28;;;;;;;8.40;2.60;;;;;;;-128.00;-1.00;-1.00;103328;1274;1012020;-72
2022/10/25 11:32:26;;;;;;;7.80;2.20;;;;;;;-128.00;-1.00;-1.00;103234;1274;1013068;-73
2022/10/25 11:35:51;;;;;;;8.90;2.70;;;;;;;-128.00;-1.00;-1.00;103284;1290;1010042;-73
2022/10/25 11:39:00;;;;;;;8.40;2.30;;;;;;;-128.00;-1.00;-1.00;103295;1282;1011065;-72
2022/10/25 11:41:51;;;;;;;12.60;2.40;;;;;;;-128.00;-1.00;-1.00;103295;1291;1012836;-73
2022/10/25 11:44:52;;;;;;;10.10;2.10;;;;;;;-128.00;-1.00;-1.00;103240;1274;1012272;-72
2022/10/25 11:48:01;;;;;;;8.50;1.90;;;;;;;-128.00;-1.00;-1.00;103266;1282;1013425;-71
2022/10/25 11:50:56;;;;;;;7.90;2.00;;;;;;;-128.00;-1.00;-1.00;103298;1282;1009468;-74
2022/10/25 11:54:17;;;;;;;8.60;2.00;;;;;;;-128.00;-1.00;-1.00;103298;1284;1011417;-73
2022/10/25 11:57:20;;;;;;;7.80;2.50;;;;;;;-128.00;-1.00;-1.00;103155;1289;1012024;-72
2022/10/25 12:00:23;;;;;;;9.00;2.10;;;;;;;-128.00;-1.00;-1.00;103238;1291;1012340;-72
2022/10/25 12:03:31;;;;;;;8.80;2.70;;;;;;;-128.00;-1.00;-1.00;103685;1268;1013070;-74
2022/10/25 12:06:33;;;;;;;9.60;2.90;;;;;;;-128.00;-1.00;-1.00;103955;1281;1009953;-75
2022/10/25 12:09:50;;;;;;;8.10;2.20;;;;;;;-128.00;-1.00;-1.00;103727;1293;1010494;-73
2022/10/25 12:13:05;;;;;;;7.30;2.00;;;;;;;-128.00;-1.00;-1.00;103915;1262;1013053;-76
2022/10/25 12:15:56;;;;;;;10.20;2.30;;;;;;;-128.00;-1.00;-1.00;103680;1272;1012712;-73
2022/10/25 12:18:48;;;;;;;9.30;2.40;;;;;;;-128.00;-1.00;-1.00;103750;1267;1013051;-74
2022/10/25 12:21:46;;;;;;;9.30;2.70;;;;;;;-128.00;-1.00;-1.00;103954;1273;1010236;-74
2022/10/25 12:24:45;;;;;;;8.40;2.40;;;;;;;-128.00;-1.00;-1.00;103789;1274;1010605;-74
2022/10/25 12:27:34;;;;;;;7.00;2.10;;;;;;;-128.00;-1.00;-1.00;103760;1268;1013490;-73
2022/10/25 12:30:20;;;;;;;6.30;2.00;;;;;;;-128.00;-1.00;-1.00;103965;1266;1012811;-73
2022/10/25 12:33:10;;;;;;;9.20;2.70;;;;;;;-128.00;-1.00;-1.00;103802;1276;1014235;-73
2022/10/25 12:36:02;;;;;;;7.70;2.20;;;;;;;-128.00;-1.00;-1.00;103751;1269;1010007;-74
2022/10/25 12:38:49;;;;;;;6.80;2.20;;;;;;;-128.00;-1.00;-1.00;103649;1269;1011158;-72
2022/10/25 12:41:39;;;;;;;8.40;2.40;;;;;;;-128.00;-1.00;-1.00;103753;1268;1012134;-73
2022/10/25 12:44:37;;;;;;;6.90;1.90;;;;;;;-128.00;-1.00;-1.00;103709;1283;1012525;-74
2022/10/25 12:48:12;;;;;;;7.90;2.20;;;;;;;-128.00;-1.00;-1.00;103783;1269;1013258;-74
2022/10/25 12:51:01;;;;;;;8.70;2.20;;;;;;;-128.00;-1.00;-1.00;103833;1262;1010433;-73
2022/10/25 12:54:03;;;;;;;7.10;1.90;;;;;;;-128.00;-1.00;-1.00;103945;1265;1011398;-74
2022/10/25 12:57:09;;;;;;;8.90;2.00;;;;;;;-128.00;-1.00;-1.00;103853;1272;1012962;-74
2022/10/25 13:00:09;;;;;;;8.00;2.00;;;;;;;-128.00;-1.00;-1.00;103802;1269;1012339;-76
2022/10/25 13:03:31;;;;;;;8.70;2.20;;;;;;;-128.00;-1.00;-1.00;103910;1275;1013403;-73
2022/10/25 13:06:37;;;;;;;7.90;2.00;;;;;;;-128.00;-1.00;-1.00;103832;1270;1010196;-73